Conifer, Colorado
Current Conditions -  °F | °C
As of 4:53 PM on Saturday 20 Dec 2014 (Local Time) from KAPA Reporting Station
Scattered Clouds Scattered Clouds  
Wind Chill: 33°   Ceiling: Unl
Heat Index: 37°   Visibility: 10mi
Dew Point: 21°   Wind: 5mph
Humidity: 52%   Direction: 160°SSE
Pressure: 29.94"   Gusts: NA
Location:  39.52°N, 105.31°W
Report Text: KAPA 202353Z 16004KT 10SM FEW080 SCT090 SCT220 03/M06 A2994 RMK AO2 SLP153 T00281061 10094 20028 53002
Loading
Personal Weather Stations






























Interactive Weather Map New forecast layout! Learn more

10-Day Weather Forecast

Advertisements
Track Severe Weather on mobile